createdAt,value
2022-07-29T00:01:19.271Z,94905.88
2022-07-29T00:03:47.608Z,94913.31
2022-07-29T00:06:16.972Z,94910.53
2022-07-29T00:08:44.877Z,94905.88
2022-07-29T00:11:12.923Z,94908.06
2022-07-29T00:13:45.391Z,94900.91
2022-07-29T00:16:17.271Z,94886.59
2022-07-29T00:18:45.070Z,94892.72
2022-07-29T00:21:12.896Z,94877.97
2022-07-29T00:23:42.254Z,94880.50
2022-07-29T00:26:10.417Z,94872.03
2022-07-29T00:28:38.233Z,94865.66
2022-07-29T00:31:06.053Z,94861.50
2022-07-29T00:33:33.803Z,94869.25
2022-07-29T00:36:00.520Z,94868.44
2022-07-29T00:38:28.376Z,94869.56
2022-07-29T00:40:57.566Z,94858.41
2022-07-29T00:43:25.432Z,94864.66
2022-07-29T00:45:53.621Z,94869.56
2022-07-29T00:48:21.538Z,94873.88
2022-07-29T00:50:51.227Z,94871.72
2022-07-29T00:53:19.379Z,94861.63
2022-07-29T00:55:47.281Z,94871.72
2022-07-29T00:58:16.613Z,94859.38
2022-07-29T01:00:44.942Z,94859.28
2022-07-29T01:03:13.782Z,94858.41
2022-07-29T01:05:49.952Z,94842.97
2022-07-29T01:08:20.210Z,94833.72
2022-07-29T01:10:48.690Z,94833.50
2022-07-29T01:13:18.888Z,94829.34
2022-07-29T01:15:50.309Z,94830.38
2022-07-29T01:18:22.032Z,94826.72
2022-07-29T01:21:06.454Z,94827.22
2022-07-29T01:24:09.891Z,94826.94
2022-07-29T01:26:44.499Z,94818.38
2022-07-29T01:29:19.677Z,94820.91
2022-07-29T01:31:58.967Z,94817.81
2022-07-29T01:34:35.644Z,94813.19
2022-07-29T01:37:08.391Z,94812.75
2022-07-29T01:39:37.721Z,94817.06
2022-07-29T01:42:11.103Z,94814.63
2022-07-29T01:44:46.215Z,94814.78
2022-07-29T01:47:18.512Z,94802.25
2022-07-29T01:49:51.012Z,94805.00
2022-07-29T01:52:22.890Z,94788.78
2022-07-29T01:54:55.331Z,94787.09
2022-07-29T01:57:28.792Z,94788.47
2022-07-29T01:59:58.936Z,94783.00
2022-07-29T02:02:29.066Z,94778.38
2022-07-29T02:04:57.634Z,94776.22
2022-07-29T02:07:26.933Z,94774.31
2022-07-29T02:09:55.207Z,94777.28
2022-07-29T02:12:24.497Z,94768.88
2022-07-29T02:14:54.705Z,94775.72
2022-07-29T02:17:27.235Z,94768.88
2022-07-29T02:19:58.152Z,94774.38
2022-07-29T02:22:27.040Z,94778.84
2022-07-29T02:24:55.468Z,94776.97
2022-07-29T02:27:24.809Z,94777.53
2022-07-29T02:29:54.360Z,94767.22
2022-07-29T02:32:25.300Z,94771.00
2022-07-29T02:34:54.638Z,94767.97
2022-07-29T02:37:23.479Z,94763.25
2022-07-29T02:39:54.428Z,94763.63
2022-07-29T02:42:23.825Z,94768.84
2022-07-29T02:44:52.471Z,94763.09
2022-07-29T02:47:24.159Z,94766.66
2022-07-29T02:49:57.477Z,94763.91
2022-07-29T02:52:28.641Z,94760.66
2022-07-29T02:54:58.392Z,94764.00
2022-07-29T02:57:32.746Z,94762.44
2022-07-29T03:00:05.892Z,94761.06
2022-07-29T03:02:36.758Z,94752.59
2022-07-29T03:05:07.536Z,94760.84
2022-07-29T03:07:37.363Z,94752.88
2022-07-29T03:10:06.530Z,94754.91
2022-07-29T03:12:41.852Z,94757.16
2022-07-29T03:15:11.010Z,94757.22
2022-07-29T03:17:39.232Z,94752.66
2022-07-29T03:20:09.461Z,94755.13
2022-07-29T03:22:44.398Z,94754.53
2022-07-29T03:25:13.118Z,94751.78
2022-07-29T03:27:40.915Z,94753.97
2022-07-29T03:30:09.966Z,94752.53
2022-07-29T03:32:38.384Z,94751.28
2022-07-29T03:35:10.422Z,94751.84
2022-07-29T03:37:38.479Z,94747.09
2022-07-29T03:40:09.680Z,94752.25
2022-07-29T03:42:39.157Z,94756.88
2022-07-29T03:45:09.650Z,94758.81
2022-07-29T03:47:50.612Z,94762.59
2022-07-29T03:50:22.440Z,94763.19
2022-07-29T03:52:50.496Z,94755.47
2022-07-29T03:55:18.392Z,94754.94
2022-07-29T03:57:47.103Z,94757.69
2022-07-29T04:00:16.527Z,94762.38
2022-07-29T04:02:49.476Z,94758.53
2022-07-29T04:05:17.985Z,94762.59
2022-07-29T04:07:47.413Z,94760.41
2022-07-29T04:10:16.552Z,94761.22
2022-07-29T04:12:44.313Z,94764.78
2022-07-29T04:15:13.013Z,94764.78
2022-07-29T04:17:40.666Z,94753.25
2022-07-29T04:20:09.594Z,94763.44
2022-07-29T04:22:37.294Z,94765.34
2022-07-29T04:25:07.007Z,94769.53
2022-07-29T04:27:34.641Z,94776.44
2022-07-29T04:30:02.380Z,94781.94
2022-07-29T04:32:30.149Z,94789.38
2022-07-29T04:34:57.810Z,94793.44
2022-07-29T04:37:25.583Z,94795.97
2022-07-29T04:39:53.209Z,94793.22
2022-07-29T04:42:27.451Z,94790.75
2022-07-29T04:44:55.486Z,94792.69
2022-07-29T04:47:23.676Z,94797.34
2022-07-29T04:49:51.298Z,94810.78
2022-07-29T04:52:18.889Z,94800.59
2022-07-29T04:54:46.531Z,94805.22
2022-07-29T04:57:14.130Z,94808.75
2022-07-29T04:59:43.070Z,94812.25
2022-07-29T05:02:10.712Z,94811.66
2022-07-29T05:04:38.393Z,94811.63
2022-07-29T05:07:05.995Z,94807.66
2022-07-29T05:09:33.718Z,94806.78
2022-07-29T05:12:01.310Z,94806.50
2022-07-29T05:14:28.970Z,94810.56
2022-07-29T05:16:58.172Z,94809.69
2022-07-29T05:19:25.788Z,94815.22
2022-07-29T05:21:53.407Z,94809.63
2022-07-29T05:24:21.009Z,94813.75
2022-07-29T05:26:48.604Z,94813.97
2022-07-29T05:29:43.095Z,94814.19
2022-07-29T05:32:06.360Z,94807.28
2022-07-29T05:34:34.012Z,94815.22
2022-07-29T05:37:01.644Z,94804.13
2022-07-29T05:39:47.089Z,94810.88
2022-07-29T05:42:16.754Z,94821.16
2022-07-29T05:44:44.447Z,94820.19
2022-07-29T05:47:13.524Z,94823.91
2022-07-29T05:49:41.187Z,94825.78
2022-07-29T05:52:08.930Z,94828.06
2022-07-29T05:54:36.583Z,94826.03
2022-07-29T05:57:06.317Z,94828.59
2022-07-29T05:59:33.989Z,94822.78
2022-07-29T06:02:01.714Z,94820.75
2022-07-29T06:04:30.762Z,94823.31
2022-07-29T06:06:58.420Z,94826.97
2022-07-29T06:09:26.977Z,94825.38
2022-07-29T06:11:54.661Z,94831.13
2022-07-29T06:14:22.271Z,94830.31
2022-07-29T06:16:49.986Z,94837.09
2022-07-29T06:19:17.753Z,94832.97
2022-07-29T06:21:47.379Z,94847.00
2022-07-29T06:24:16.071Z,94839.56
2022-07-29T06:26:44.342Z,94843.63
2022-07-29T06:29:12.654Z,94848.84
2022-07-29T06:31:40.550Z,94850.13
2022-07-29T06:34:08.238Z,94846.00
2022-07-29T06:36:37.706Z,94853.31
2022-07-29T06:39:08.094Z,94853.00
2022-07-29T06:41:36.420Z,94853.28
2022-07-29T06:44:05.545Z,94846.91
2022-07-29T06:46:33.681Z,94848.91
2022-07-29T06:49:02.529Z,94852.50
2022-07-29T06:51:30.522Z,94853.25
2022-07-29T06:54:02.461Z,94859.22
2022-07-29T06:56:38.873Z,94863.28
2022-07-29T06:59:08.296Z,94866.44
2022-07-29T07:01:36.523Z,94869.97
2022-07-29T07:04:04.300Z,94865.13
2022-07-29T07:06:31.854Z,94862.72
2022-07-29T07:08:59.504Z,94865.34
2022-07-29T07:11:27.066Z,94868.94
2022-07-29T07:14:00.691Z,94866.47
2022-07-29T07:16:30.502Z,94864.66
2022-07-29T07:18:58.164Z,94868.25
2022-07-29T07:21:25.839Z,94870.03
2022-07-29T07:23:53.427Z,94870.03
2022-07-29T07:26:21.200Z,94874.91
2022-07-29T07:28:48.806Z,94873.66
2022-07-29T07:31:17.838Z,94868.19
2022-07-29T07:33:45.474Z,94876.88
2022-07-29T07:36:13.095Z,94879.09
2022-07-29T07:38:40.675Z,94887.09
2022-07-29T07:41:08.344Z,94889.66
2022-07-29T07:43:36.114Z,94879.13
2022-07-29T07:46:03.821Z,94882.38
2022-07-29T07:48:32.869Z,94885.66
2022-07-29T07:51:00.485Z,94880.84
2022-07-29T07:53:28.554Z,94875.69
2022-07-29T07:56:12.724Z,94880.28
2022-07-29T07:58:40.836Z,94873.63
2022-07-29T08:01:08.714Z,94866.44
2022-07-29T08:03:38.425Z,94866.81
2022-07-29T08:06:06.421Z,94869.66
2022-07-29T08:08:34.093Z,94878.66
2022-07-29T08:11:06.898Z,94876.50
2022-07-29T08:13:36.594Z,94883.03
2022-07-29T08:16:14.622Z,94881.00
2022-07-29T08:18:49.194Z,94877.22
2022-07-29T08:21:17.157Z,94880.75
2022-07-29T08:23:58.984Z,94883.13
2022-07-29T08:26:27.537Z,94875.06
2022-07-29T08:28:55.175Z,94882.81
2022-07-29T08:31:22.947Z,94881.25
2022-07-29T08:33:52.006Z,94889.66
2022-07-29T08:36:21.867Z,94885.72
2022-07-29T08:38:50.448Z,94893.28
2022-07-29T08:41:19.932Z,94894.69
2022-07-29T08:43:47.666Z,94900.91
2022-07-29T08:46:15.431Z,94900.66
2022-07-29T08:48:43.702Z,94901.69
2022-07-29T08:51:15.377Z,94903.63
2022-07-29T08:53:44.378Z,94902.38
2022-07-29T08:56:13.981Z,94898.69
2022-07-29T08:58:42.137Z,94896.03
2022-07-29T09:01:13.919Z,94893.19
2022-07-29T09:03:43.615Z,94895.69
2022-07-29T09:06:15.347Z,94899.97
2022-07-29T09:08:43.667Z,94899.72
2022-07-29T09:11:12.529Z,94897.06
2022-07-29T09:13:40.149Z,94908.34
2022-07-29T09:16:09.494Z,94901.81
2022-07-29T09:18:38.532Z,94903.19
2022-07-29T09:21:24.022Z,94898.13
2022-07-29T09:24:08.110Z,94900.59
2022-07-29T09:26:37.081Z,94900.25
2022-07-29T09:29:10.829Z,94899.75
2022-07-29T09:31:41.806Z,94898.31
2022-07-29T09:34:10.821Z,94901.81
2022-07-29T09:36:42.545Z,94898.00
2022-07-29T09:39:11.639Z,94897.34
2022-07-29T09:41:50.804Z,94900.78
2022-07-29T09:44:19.259Z,94894.56
2022-07-29T09:46:58.370Z,94889.16
2022-07-29T09:49:26.747Z,94880.59
2022-07-29T09:52:08.685Z,94888.41
2022-07-29T09:54:41.260Z,94881.28
2022-07-29T09:57:13.447Z,94877.22
2022-07-29T09:59:50.289Z,94884.53
2022-07-29T10:02:23.641Z,94876.50
2022-07-29T10:04:51.811Z,94887.75
2022-07-29T10:07:20.332Z,94875.22
2022-07-29T10:09:55.354Z,94883.50
2022-07-29T10:12:23.766Z,94883.03
2022-07-29T10:14:52.385Z,94881.25
2022-07-29T10:17:20.590Z,94884.44
2022-07-29T10:19:49.804Z,94886.72
2022-07-29T10:22:43.365Z,94884.41
2022-07-29T10:25:07.015Z,94881.72
2022-07-29T10:27:34.641Z,94884.44
2022-07-29T10:30:02.668Z,94883.44
2022-07-29T10:32:39.473Z,94887.38
2022-07-29T10:35:30.056Z,94885.28
2022-07-29T10:38:36.120Z,94888.59
2022-07-29T10:41:32.051Z,94886.25
2022-07-29T10:44:06.527Z,94872.94
2022-07-29T10:46:37.439Z,94883.94
2022-07-29T10:49:08.408Z,94873.22
2022-07-29T10:51:57.435Z,94882.19
2022-07-29T10:54:51.021Z,94879.47
2022-07-29T11:00:37.761Z,94872.78
2022-07-29T11:03:10.889Z,94870.94
2022-07-29T11:06:02.842Z,94868.41
2022-07-29T11:08:36.570Z,94873.13
2022-07-29T11:11:38.149Z,94871.22
2022-07-29T11:14:10.146Z,94874.50
2022-07-29T11:17:00.749Z,94863.41
2022-07-29T11:19:30.428Z,94864.75
2022-07-29T11:21:59.273Z,94865.09
2022-07-29T11:24:30.294Z,94862.16
2022-07-29T11:27:14.900Z,94861.09
2022-07-29T11:29:55.651Z,94854.38
2022-07-29T11:32:24.921Z,94854.31
2022-07-29T11:35:17.573Z,94861.78
2022-07-29T11:37:52.625Z,94869.25
2022-07-29T11:40:23.221Z,94854.81
2022-07-29T11:42:52.145Z,94851.16
2022-07-29T11:45:42.624Z,94850.59
2022-07-29T11:48:29.387Z,94847.13
2022-07-29T11:51:00.648Z,94845.50
2022-07-29T11:56:17.213Z,94824.09
2022-07-29T11:58:44.930Z,94826.66
2022-07-29T12:01:19.229Z,94832.06
2022-07-29T12:03:46.920Z,94825.41
2022-07-29T12:06:18.409Z,94821.91
2022-07-29T12:08:49.340Z,94828.84
2022-07-29T12:11:20.503Z,94830.94
2022-07-29T12:13:49.669Z,94819.31
2022-07-29T12:16:25.502Z,94822.13
2022-07-29T12:18:58.461Z,94821.84
2022-07-29T12:21:27.001Z,94828.41
2022-07-29T12:24:01.764Z,94830.75
2022-07-29T12:26:35.666Z,94822.38
2022-07-29T12:29:03.969Z,94827.03
2022-07-29T12:31:44.169Z,94822.59
2022-07-29T12:34:13.370Z,94816.47
2022-07-29T12:36:41.516Z,94822.06
2022-07-29T12:39:10.029Z,94814.94
2022-07-29T12:41:37.749Z,94818.19
2022-07-29T12:44:05.890Z,94831.09
2022-07-29T12:46:33.608Z,94815.56
2022-07-29T12:49:04.142Z,94818.34
2022-07-29T12:51:32.933Z,94824.50
2022-07-29T12:54:11.552Z,94825.13
2022-07-29T12:56:43.983Z,94824.38
2022-07-29T12:59:17.061Z,94822.28
2022-07-29T13:01:45.080Z,94820.91
2022-07-29T13:04:26.134Z,94822.34
2022-07-29T13:07:00.782Z,94829.84
2022-07-29T13:09:38.918Z,94819.72
2022-07-29T13:12:09.434Z,94827.97
2022-07-29T13:14:38.007Z,94832.69
2022-07-29T13:17:07.689Z,94824.91
2022-07-29T13:19:38.971Z,94828.63
2022-07-29T13:22:06.961Z,94830.81
2022-07-29T13:24:34.634Z,94828.38
2022-07-29T13:27:02.414Z,94828.28
2022-07-29T13:29:34.132Z,94827.56
2022-07-29T13:32:01.921Z,94823.34
2022-07-29T13:34:29.504Z,94818.97
2022-07-29T13:36:58.429Z,94816.84
2022-07-29T13:39:26.033Z,94809.97
2022-07-29T13:41:53.665Z,94810.91
2022-07-29T13:44:21.271Z,94812.53
2022-07-29T13:46:48.907Z,94814.13
2022-07-29T13:49:16.619Z,94811.47
2022-07-29T13:51:44.250Z,94809.41
2022-07-29T13:54:13.239Z,94805.09
2022-07-29T13:56:40.921Z,94792.88
2022-07-29T13:59:08.824Z,94798.84
2022-07-29T14:01:36.625Z,94791.72
2022-07-29T14:04:04.756Z,94789.84
2022-07-29T14:06:32.520Z,94800.78
2022-07-29T14:09:00.182Z,94794.97
2022-07-29T14:11:29.169Z,94788.03
2022-07-29T14:13:56.789Z,94791.50
2022-07-29T14:16:24.535Z,94800.47
2022-07-29T14:18:52.259Z,94790.13
2022-07-29T14:21:19.978Z,94800.00
2022-07-29T14:23:47.642Z,94791.88
2022-07-29T14:26:18.906Z,94798.59
2022-07-29T14:28:51.221Z,94800.25
2022-07-29T14:31:19.063Z,94807.53
2022-07-29T14:33:49.341Z,94806.16
2022-07-29T14:36:17.286Z,94803.94
2022-07-29T14:38:45.149Z,94805.38
2022-07-29T14:41:14.024Z,94801.03
2022-07-29T14:43:41.727Z,94812.88
2022-07-29T14:46:10.948Z,94823.34
2022-07-29T14:48:38.710Z,94816.47
2022-07-29T14:51:07.492Z,94818.13
2022-07-29T14:53:35.264Z,94819.38
2022-07-29T14:56:20.847Z,94825.75
2022-07-29T14:58:51.943Z,94829.31
2022-07-29T15:01:21.113Z,94836.97
2022-07-29T15:03:48.800Z,94831.28
2022-07-29T15:06:16.446Z,94831.28
2022-07-29T15:08:44.161Z,94832.97
2022-07-29T15:11:11.769Z,94835.75
2022-07-29T15:13:39.784Z,94842.84
2022-07-29T15:16:07.766Z,94839.91
2022-07-29T15:18:38.674Z,94835.22
2022-07-29T15:21:07.795Z,94839.28
2022-07-29T15:23:37.244Z,94833.75
2022-07-29T15:26:05.791Z,94822.41
2022-07-29T15:28:33.517Z,94813.13
2022-07-29T15:31:01.273Z,94813.09
2022-07-29T15:33:28.937Z,94817.59
2022-07-29T15:35:59.166Z,94813.75
2022-07-29T15:38:28.679Z,94814.97
2022-07-29T15:40:56.858Z,94822.06
2022-07-29T15:43:24.665Z,94820.84
2022-07-29T15:46:11.702Z,94827.38
2022-07-29T15:48:41.085Z,94829.41
2022-07-29T15:51:10.211Z,94838.22
2022-07-29T15:53:37.885Z,94841.06
2022-07-29T15:56:05.976Z,94843.66
2022-07-29T15:58:33.689Z,94835.63
2022-07-29T16:01:01.410Z,94838.41
2022-07-29T16:03:29.527Z,94840.25
2022-07-29T16:05:57.230Z,94845.00
2022-07-29T16:08:26.283Z,94844.75
2022-07-29T16:10:53.974Z,94838.56
2022-07-29T16:13:23.580Z,94839.63
2022-07-29T16:16:02.008Z,94854.44
2022-07-29T16:18:31.117Z,94859.91
2022-07-29T16:20:58.776Z,94867.06
2022-07-29T16:23:27.957Z,94873.50
2022-07-29T16:26:00.450Z,94866.41
2022-07-29T16:28:28.665Z,94867.94
2022-07-29T16:30:57.155Z,94861.38
2022-07-29T16:33:25.039Z,94870.44
2022-07-29T16:35:53.237Z,94875.41
2022-07-29T16:38:21.244Z,94877.56
2022-07-29T16:40:50.825Z,94876.25
2022-07-29T16:43:18.464Z,94887.06
2022-07-29T16:45:47.025Z,94880.56
2022-07-29T16:48:15.179Z,94888.09
2022-07-29T16:50:45.698Z,94897.94
2022-07-29T16:53:13.340Z,94909.59
2022-07-29T16:55:42.356Z,94916.78
2022-07-29T16:58:11.805Z,94925.44
2022-07-29T17:00:39.935Z,94933.28
2022-07-29T17:03:07.708Z,94949.34
2022-07-29T17:05:50.435Z,94953.34
2022-07-29T17:08:21.661Z,94941.72
2022-07-29T17:10:49.542Z,94939.69
2022-07-29T17:13:18.517Z,94954.25
2022-07-29T17:15:46.246Z,94954.66
2022-07-29T17:18:13.886Z,94951.34
2022-07-29T17:20:42.378Z,94964.81
2022-07-29T17:23:10.267Z,94966.97
2022-07-29T17:25:37.991Z,94965.09
2022-07-29T17:28:05.944Z,94975.84
2022-07-29T17:30:34.963Z,94989.03
2022-07-29T17:33:02.667Z,94987.22
2022-07-29T17:35:47.920Z,94980.66
2022-07-29T17:38:15.581Z,94992.25
2022-07-29T17:40:43.384Z,94986.09
2022-07-29T17:43:11.007Z,94994.09
2022-07-29T17:45:50.017Z,94996.34
2022-07-29T17:48:18.867Z,94986.50
2022-07-29T17:50:46.781Z,94986.91
2022-07-29T17:53:16.211Z,94983.84
2022-07-29T17:55:45.397Z,94984.69
2022-07-29T17:58:13.268Z,94986.72
2022-07-29T18:00:42.542Z,94991.63
2022-07-29T18:03:10.309Z,94992.03
2022-07-29T18:05:38.214Z,94996.16
2022-07-29T18:08:06.243Z,95009.66
2022-07-29T18:10:33.946Z,95007.81
2022-07-29T18:13:02.804Z,95007.47
2022-07-29T18:15:30.535Z,94999.78
2022-07-29T18:17:59.473Z,94996.97
2022-07-29T18:20:27.397Z,95012.75
2022-07-29T18:22:55.066Z,95001.72
2022-07-29T18:25:22.833Z,95006.81
2022-07-29T18:27:50.572Z,95007.72
2022-07-29T18:30:19.171Z,95013.75
2022-07-29T18:33:04.899Z,95016.00
2022-07-29T18:35:36.080Z,95021.44
2022-07-29T18:38:03.793Z,95031.97
2022-07-29T18:40:31.676Z,95033.13
2022-07-29T18:42:59.343Z,95021.38
2022-07-29T18:45:28.499Z,95024.19
2022-07-29T18:47:56.658Z,95037.25
2022-07-29T18:50:29.230Z,95030.34
2022-07-29T18:53:01.127Z,95039.13
2022-07-29T18:55:28.765Z,95039.50
2022-07-29T18:57:57.299Z,95040.09
2022-07-29T19:00:26.057Z,95042.31
2022-07-29T19:02:53.971Z,95034.09
2022-07-29T19:05:22.979Z,95043.31
2022-07-29T19:07:50.749Z,95026.31
2022-07-29T19:10:19.751Z,95036.56
2022-07-29T19:12:47.457Z,95028.56
2022-07-29T19:15:19.891Z,95037.78
2022-07-29T19:17:48.640Z,95035.94
2022-07-29T19:20:16.579Z,95038.47
2022-07-29T19:22:44.190Z,95039.59
2022-07-29T19:25:11.915Z,95045.19
2022-07-29T19:27:41.245Z,95046.63
2022-07-29T19:30:09.685Z,95048.63
2022-07-29T19:32:37.701Z,95059.59
2022-07-29T19:35:23.677Z,95061.78
2022-07-29T19:37:51.568Z,95061.88
2022-07-29T19:40:19.292Z,95062.44
2022-07-29T19:42:51.477Z,95066.13
2022-07-29T19:45:19.317Z,95066.69
2022-07-29T19:47:46.981Z,95064.22
2022-07-29T19:50:15.084Z,95066.13
2022-07-29T19:52:42.726Z,95064.69
2022-07-29T19:55:11.169Z,95068.03
2022-07-29T19:57:41.073Z,95067.97
2022-07-29T20:00:11.729Z,95068.06
2022-07-29T20:02:40.134Z,95063.66
2022-07-29T20:05:08.893Z,95062.50
2022-07-29T20:07:36.747Z,95064.13
2022-07-29T20:10:05.415Z,95071.56
2022-07-29T20:12:33.116Z,95074.31
2022-07-29T20:15:01.621Z,95074.56
2022-07-29T20:17:30.608Z,95073.72
2022-07-29T20:19:59.953Z,95074.91
2022-07-29T20:22:27.712Z,95068.25
2022-07-29T20:24:55.325Z,95069.91
2022-07-29T20:27:23.038Z,95073.25
2022-07-29T20:29:50.661Z,95067.44
2022-07-29T20:32:18.287Z,95071.28
2022-07-29T20:34:47.297Z,95068.59
2022-07-29T20:37:16.594Z,95072.16
2022-07-29T20:39:46.378Z,95072.97
2022-07-29T20:42:14.020Z,95066.91
2022-07-29T20:44:41.680Z,95058.66
2022-07-29T20:47:09.802Z,95065.28
2022-07-29T20:49:37.449Z,95068.59
2022-07-29T20:52:06.823Z,95064.69
2022-07-29T20:54:34.445Z,95057.81
2022-07-29T20:57:02.415Z,95057.78
2022-07-29T20:59:30.219Z,95062.81
2022-07-29T21:01:57.936Z,95061.41
2022-07-29T21:04:30.825Z,95052.06
2022-07-29T21:07:00.426Z,95055.44
2022-07-29T21:09:29.808Z,95050.97
2022-07-29T21:11:59.484Z,95054.06
2022-07-29T21:14:46.678Z,95051.91
2022-07-29T21:17:14.659Z,95049.41
2022-07-29T21:19:42.425Z,95053.50
2022-07-29T21:22:10.144Z,95053.44
2022-07-29T21:24:39.154Z,95051.78
2022-07-29T21:27:24.546Z,95051.84
2022-07-29T21:29:52.348Z,95049.03
2022-07-29T21:32:27.555Z,95042.78
2022-07-29T21:34:57.905Z,95046.56
2022-07-29T21:37:25.635Z,95044.41
2022-07-29T21:39:54.586Z,95045.25
2022-07-29T21:42:22.220Z,95037.75
2022-07-29T21:44:50.297Z,95037.19
2022-07-29T21:47:17.886Z,95034.72
2022-07-29T21:49:46.447Z,95028.16
2022-07-29T21:52:14.265Z,95034.19
2022-07-29T21:54:42.609Z,95033.09
2022-07-29T21:57:11.566Z,95029.81
2022-07-29T21:59:39.155Z,95027.66
2022-07-29T22:02:06.789Z,95024.88
2022-07-29T22:04:36.156Z,95030.09
2022-07-29T22:07:04.198Z,95026.81
2022-07-29T22:09:32.124Z,95035.66
2022-07-29T22:11:59.709Z,95032.09
2022-07-29T22:14:28.686Z,95020.28
2022-07-29T22:16:58.150Z,95032.09
2022-07-29T22:19:27.514Z,95027.34
2022-07-29T22:21:55.366Z,95027.66
2022-07-29T22:24:22.972Z,95027.16
2022-07-29T22:26:50.592Z,95022.75
2022-07-29T22:29:19.073Z,95029.88
2022-07-29T22:31:48.033Z,95027.97
2022-07-29T22:34:16.013Z,95030.72
2022-07-29T22:36:43.656Z,95039.50
2022-07-29T22:39:11.908Z,95040.59
2022-07-29T22:41:43.327Z,95047.47
2022-07-29T22:44:10.997Z,95048.06
2022-07-29T22:46:38.676Z,95056.72
2022-07-29T22:49:07.771Z,95051.31
2022-07-29T22:51:35.648Z,95049.09
2022-07-29T22:54:03.313Z,95051.53
2022-07-29T22:56:30.997Z,95046.81
2022-07-29T22:58:58.643Z,95044.06
2022-07-29T23:01:37.616Z,95048.13
2022-07-29T23:04:08.081Z,95040.94
2022-07-29T23:06:35.885Z,95034.88
2022-07-29T23:09:03.557Z,95031.28
2022-07-29T23:11:31.231Z,95022.13
2022-07-29T23:13:58.878Z,95026.25
2022-07-29T23:16:27.138Z,95026.22
2022-07-29T23:18:55.021Z,95028.41
2022-07-29T23:21:24.558Z,95022.94
2022-07-29T23:23:52.176Z,95019.72
2022-07-29T23:26:19.946Z,95012.56
2022-07-29T23:28:47.599Z,95011.72
2022-07-29T23:31:15.433Z,95014.44
2022-07-29T23:33:43.174Z,95009.72
2022-07-29T23:36:10.893Z,94999.78
2022-07-29T23:38:41.579Z,95008.63
2022-07-29T23:41:09.963Z,95006.38
2022-07-29T23:43:37.878Z,94997.06
2022-07-29T23:46:06.416Z,94989.88
2022-07-29T23:48:34.646Z,94996.75
2022-07-29T23:51:02.284Z,94993.25
2022-07-29T23:53:30.017Z,94989.91
2022-07-29T23:55:58.969Z,94992.16
2022-07-29T23:58:26.583Z,94988.78
